Time;durP1;ratioP1;P1;durP2;ratioP2;P2;SDS_P1;SDS_P2;PMS_P1;PMS_P2;Temp;Humidity;BMP_temperature;BMP_pressure;BME280_temperature;BME280_humidity;BME280_pressure;Samples;Min_cycle;Max_cycle;Signal;HPM_P1;HPM_P2
2023/06/22 00:00:49;;;;;;;28.52;25.83;;;18.20;99.90;;;;;;5083175;27;20035;-74
2023/06/22 00:03:15;;;;;;;24.73;22.45;;;18.20;99.90;;;;;;5088835;27;20061;-74
2023/06/22 00:05:45;;;;;;;29.80;26.88;;;18.20;99.90;;;;;;5086221;27;20035;-74
2023/06/22 00:08:14;;;;;;;;;;;18.20;99.90;;;;;;5066421;27;20072;-74
2023/06/22 00:10:44;;;;;;;28.02;25.25;;;18.10;99.90;;;;;;5127318;27;19923;-74
2023/06/22 00:13:11;;;;;;;31.20;28.05;;;18.00;99.90;;;;;;5083705;28;20134;-74
2023/06/22 00:15:41;;;;;;;25.77;23.27;;;18.00;99.90;;;;;;5083362;27;20084;-75
2023/06/22 00:18:09;;;;;;;25.92;23.35;;;17.90;99.90;;;;;;5086469;27;20039;-78
2023/06/22 00:20:38;;;;;;;29.08;26.23;;;17.80;99.90;;;;;;5084427;27;20039;-77
2023/06/22 00:23:08;;;;;;;24.67;22.38;;;17.80;99.90;;;;;;5080531;28;20490;-74
2023/06/22 00:25:35;;;;;;;25.73;23.23;;;17.70;99.90;;;;;;5083687;27;20650;-74
2023/06/22 00:28:03;;;;;;;30.65;27.75;;;17.60;99.90;;;;;;5084208;28;20047;-75
2023/06/22 00:30:30;;;;;;;39.20;34.15;;;17.70;99.90;;;;;;5085708;28;20775;-75
2023/06/22 00:32:56;;;;;;;41.10;37.05;;;17.60;99.90;;;;;;5083810;27;20453;-75
2023/06/22 00:35:21;;;;;;;35.95;32.47;;;17.60;99.90;;;;;;5087434;27;20050;-75
2023/06/22 00:37:51;;;;;;;31.58;28.52;;;17.50;99.90;;;;;;5080899;28;20138;-74
2023/06/22 00:40:21;;;;;;;32.80;29.77;;;17.50;99.90;;;;;;5068870;28;20138;-74
2023/06/22 00:42:47;;;;;;;34.05;30.85;;;17.40;99.90;;;;;;5103709;28;20042;-75
2023/06/22 00:45:13;;;;;;;31.17;28.17;;;17.40;99.90;;;;;;5083392;28;20545;-75
2023/06/22 00:47:38;;;;;;;40.30;36.28;;;17.40;99.90;;;;;;5084028;28;20058;-74
2023/06/22 00:50:10;;;;;;;35.53;32.22;;;17.30;99.90;;;;;;5068682;28;20277;-75
2023/06/22 00:52:37;;;;;;;41.17;37.00;;;17.40;99.90;;;;;;5100522;28;20043;-75
2023/06/22 00:55:03;;;;;;;40.70;36.70;;;17.30;99.90;;;;;;5079176;28;20054;-75
2023/06/22 00:57:30;;;;;;;33.40;30.30;;;17.30;99.90;;;;;;5071832;28;20122;-75
2023/06/22 00:59:56;;;;;;;45.53;40.50;;;17.30;99.90;;;;;;5090293;27;20043;-75
2023/06/22 01:02:22;;;;;;;34.30;31.13;;;17.30;99.90;;;;;;5090286;27;20164;-75
2023/06/22 01:04:48;;;;;;;37.70;34.20;;;17.40;99.90;;;;;;5104217;27;20076;-75
2023/06/22 01:07:38;;;;;;;34.03;30.77;;;17.40;99.90;;;;;;5073105;27;20049;-75
2023/06/22 01:10:21;;;;;;;36.92;33.47;;;17.40;99.90;;;;;;5089029;27;20039;-75
2023/06/22 01:12:54;;;;;;;29.42;26.70;;;17.40;99.90;;;;;;5100116;27;20134;-75
2023/06/22 01:15:28;;;;;;;27.27;24.80;;;17.40;99.90;;;;;;5089517;27;20031;-75
2023/06/22 01:17:56;;;;;;;21.95;20.05;;;17.40;99.90;;;;;;5089634;27;20050;-75
2023/06/22 01:20:23;;;;;;;25.88;23.60;;;17.40;99.90;;;;;;5073668;27;20082;-74
2023/06/22 01:23:09;;;;;;;28.05;25.55;;;17.30;99.90;;;;;;5102308;27;20120;-76
2023/06/22 01:25:59;;;;;;;29.45;26.80;;;17.30;99.90;;;;;;5088184;27;20567;-75
2023/06/22 01:28:34;;;;;;;;;;;17.30;99.90;;;;;;5105443;27;20059;-75
2023/06/22 01:31:05;;;;;;;44.40;39.90;;;17.30;99.90;;;;;;5104201;27;19964;-75
2023/06/22 01:33:38;;;;;;;33.40;30.10;;;17.30;99.90;;;;;;5104413;27;20054;-76
2023/06/22 01:36:05;;;;;;;35.15;31.85;;;17.30;99.90;;;;;;5103031;27;20051;-76
2023/06/22 01:38:32;;;;;;;37.17;33.67;;;17.30;99.90;;;;;;5088748;27;20031;-75
2023/06/22 01:40:58;;;;;;;37.45;34.15;;;17.30;99.90;;;;;;5088083;27;20178;-75
2023/06/22 01:43:26;;;;;;;36.97;33.47;;;17.30;99.90;;;;;;5085854;27;20151;-75
2023/06/22 01:45:57;;;;;;;36.85;33.47;;;17.30;99.90;;;;;;5079464;27;20039;-75
2023/06/22 01:48:23;;;;;;;32.08;29.23;;;17.30;99.90;;;;;;5112901;27;20202;-75
2023/06/22 01:50:49;;;;;;;29.85;27.25;;;17.30;99.90;;;;;;5072674;27;20122;-75
2023/06/22 01:53:15;;;;;;;29.15;26.75;;;17.20;99.90;;;;;;5084397;27;20054;-75
2023/06/22 01:55:44;;;;;;;28.73;26.17;;;17.10;99.90;;;;;;5090065;27;20043;-76
2023/06/22 01:58:10;;;;;;;29.75;27.15;;;17.10;99.90;;;;;;5084468;27;20138;-75
2023/06/22 02:00:39;;;;;;;30.85;28.15;;;17.10;99.90;;;;;;5091044;27;20232;-75
2023/06/22 02:03:19;;;;;;;29.93;27.43;;;17.10;99.90;;;;;;5097832;27;20393;-75
2023/06/22 02:06:22;;;;;;;29.30;26.90;;;17.10;99.90;;;;;;5088574;28;20043;-75
2023/06/22 02:08:53;;;;;;;32.40;29.58;;;17.10;99.90;;;;;;5055615;28;20086;-75
2023/06/22 02:11:20;;;;;;;28.60;26.23;;;17.00;99.90;;;;;;5078363;27;20086;-76
2023/06/22 02:13:49;;;;;;;31.25;28.75;;;17.00;99.90;;;;;;5084915;27;20099;-75
2023/06/22 02:16:16;;;;;;;31.30;28.65;;;17.00;99.90;;;;;;5073922;27;20039;-75
2023/06/22 02:18:47;;;;;;;31.35;28.75;;;16.90;99.90;;;;;;5059246;27;20103;-75
2023/06/22 02:21:13;;;;;;;36.08;33.08;;;16.90;99.90;;;;;;5081484;28;20043;-75
2023/06/22 02:23:38;;;;;;;30.83;28.17;;;16.90;99.90;;;;;;5073174;27;20047;-75
2023/06/22 02:26:05;;;;;;;34.22;31.35;;;16.90;99.90;;;;;;5078203;28;20039;-75
2023/06/22 02:28:30;;;;;;;32.95;30.13;;;16.80;99.90;;;;;;5090344;27;20043;-75
2023/06/22 02:30:56;;;;;;;41.38;37.45;;;16.70;99.90;;;;;;5077992;27;20052;-75
2023/06/22 02:33:22;;;;;;;29.02;26.70;;;16.70;99.90;;;;;;5076928;28;20096;-75
2023/06/22 02:35:48;;;;;;;31.65;29.00;;;16.60;99.90;;;;;;5067127;28;20490;-75
2023/06/22 02:38:15;;;;;;;33.72;30.92;;;16.50;99.90;;;;;;5097251;28;20288;-75
2023/06/22 02:40:41;;;;;;;30.05;27.48;;;16.50;99.90;;;;;;5083487;28;20165;-75
2023/06/22 02:43:07;;;;;;;31.70;29.20;;;16.60;99.90;;;;;;5049055;28;20052;-76
2023/06/22 02:45:33;;;;;;;26.88;24.77;;;16.60;99.90;;;;;;5087743;28;20051;-75
2023/06/22 02:48:02;;;;;;;28.83;26.52;;;16.60;99.90;;;;;;5071137;28;20048;-75
2023/06/22 02:50:28;;;;;;;27.08;24.98;;;16.60;99.90;;;;;;5063586;28;20056;-75
2023/06/22 02:52:54;;;;;;;25.95;23.75;;;16.50;99.90;;;;;;5069693;28;20044;-75
2023/06/22 02:55:20;;;;;;;31.40;28.85;;;16.50;99.90;;;;;;5062759;28;20047;-74
2023/06/22 02:57:47;;;;;;;29.52;27.02;;;16.50;99.90;;;;;;5067217;28;20110;-75
2023/06/22 03:00:17;;;;;;;25.65;23.52;;;16.50;99.90;;;;;;5078016;28;20386;-75
2023/06/22 03:02:47;;;;;;;27.85;25.52;;;16.40;99.90;;;;;;5070350;28;20039;-74
2023/06/22 03:05:18;;;;;;;29.52;27.02;;;16.40;99.90;;;;;;5102334;28;20044;-75
2023/06/22 03:07:43;;;;;;;;;;;16.40;99.90;;;;;;5089450;28;20047;-75
2023/06/22 03:10:10;;;;;;;32.53;29.83;;;16.30;99.90;;;;;;5088045;28;20316;-75
2023/06/22 03:12:40;;;;;;;28.33;25.92;;;16.30;99.90;;;;;;5050946;28;20044;-75
2023/06/22 03:15:08;;;;;;;29.23;26.75;;;16.30;99.90;;;;;;5068191;28;20036;-75
2023/06/22 03:17:34;;;;;;;33.88;31.08;;;16.30;99.90;;;;;;5070092;28;20044;-75
2023/06/22 03:20:09;;;;;;;31.92;29.20;;;16.30;99.90;;;;;;5104413;28;20494;-75
2023/06/22 03:22:42;;;;;;;35.53;32.33;;;16.20;99.90;;;;;;5077897;28;20044;-75
2023/06/22 03:25:15;;;;;;;39.55;35.85;;;16.20;99.90;;;;;;5079472;28;20047;-74
2023/06/22 03:27:44;;;;;;;34.42;31.63;;;16.20;99.90;;;;;;5062832;28;20039;-75
2023/06/22 03:30:11;;;;;;;38.08;34.88;;;16.20;99.90;;;;;;5070681;28;20204;-74
2023/06/22 03:32:38;;;;;;;36.78;33.67;;;16.20;99.90;;;;;;5073119;28;20044;-75
2023/06/22 03:35:07;;;;;;;40.30;36.75;;;16.20;99.90;;;;;;5089614;28;20058;-74
2023/06/22 03:37:33;;;;;;;42.83;38.87;;;16.20;99.90;;;;;;5093631;28;20047;-74
2023/06/22 03:39:58;;;;;;;38.67;35.22;;;16.20;99.90;;;;;;5055033;28;20303;-74
2023/06/22 03:42:25;;;;;;;37.85;34.45;;;16.20;99.90;;;;;;5044263;28;20102;-74
2023/06/22 03:44:51;;;;;;;37.75;34.15;;;16.20;99.90;;;;;;5080909;28;20036;-74
2023/06/22 03:47:17;;;;;;;37.28;34.08;;;16.00;99.90;;;;;;5082691;28;20074;-74
2023/06/22 03:49:43;;;;;;;37.25;33.88;;;16.10;99.90;;;;;;5063685;28;20047;-74
2023/06/22 03:52:10;;;;;;;37.25;34.05;;;16.00;99.90;;;;;;5037260;28;20044;-75
2023/06/22 03:54:36;;;;;;;37.22;34.03;;;16.00;99.90;;;;;;5067466;28;20040;-74
2023/06/22 03:57:02;;;;;;;36.03;33.17;;;15.90;99.90;;;;;;5048911;28;20058;-75
2023/06/22 03:59:28;;;;;;;35.63;32.53;;;15.90;99.90;;;;;;5033130;28;20063;-74
2023/06/22 04:01:54;;;;;;;33.60;30.80;;;15.90;99.90;;;;;;5065232;28;20142;-74
2023/06/22 04:04:20;;;;;;;39.30;35.95;;;15.90;99.90;;;;;;5040380;28;20078;-74
2023/06/22 04:06:46;;;;;;;44.88;40.80;;;16.00;99.90;;;;;;5055516;28;20090;-74
2023/06/22 04:09:12;;;;;;;43.08;38.85;;;16.10;99.90;;;;;;5076791;28;20045;-74
2023/06/22 04:11:38;;;;;;;46.38;42.15;;;16.10;99.90;;;;;;5060481;28;20563;-74
2023/06/22 04:14:04;;;;;;;42.88;39.08;;;16.20;99.90;;;;;;5032341;28;20032;-74
2023/06/22 04:16:29;;;;;;;47.13;42.92;;;16.20;99.90;;;;;;5060903;28;20044;-74
2023/06/22 04:18:55;;;;;;;46.15;42.05;;;16.20;99.90;;;;;;5046495;28;20545;-73
2023/06/22 04:21:21;;;;;;;46.45;42.22;;;16.20;99.90;;;;;;5046681;28;20502;-75
2023/06/22 04:23:47;;;;;;;56.17;46.55;;;16.20;99.90;;;;;;5077481;28;20491;-74
2023/06/22 04:26:14;;;;;;;49.95;43.08;;;16.20;99.90;;;;;;5061064;28;20044;-74
2023/06/22 04:28:41;;;;;;;56.90;41.50;;;16.20;99.90;;;;;;5077699;28;20468;-74
2023/06/22 04:31:09;;;;;;;46.00;41.37;;;16.10;99.90;;;;;;5066263;28;20794;-74
2023/06/22 04:33:35;;;;;;;41.45;38.05;;;16.10;99.90;;;;;;5042791;28;20388;-74
2023/06/22 04:36:01;;;;;;;47.38;43.40;;;16.10;99.90;;;;;;5051637;28;20048;-74
2023/06/22 04:38:27;;;;;;;43.72;40.20;;;16.10;99.90;;;;;;5078773;28;20089;-75
2023/06/22 04:40:53;;;;;;;42.95;39.33;;;16.00;99.90;;;;;;5084008;28;20517;-74
2023/06/22 04:43:20;;;;;;;46.00;42.20;;;16.00;99.90;;;;;;5082508;28;20059;-74
2023/06/22 04:45:45;;;;;;;47.90;43.97;;;16.10;99.90;;;;;;5115603;28;20079;-74
2023/06/22 04:48:15;;;;;;;43.75;40.15;;;16.10;99.90;;;;;;5084005;28;20075;-74
2023/06/22 04:50:44;;;;;;;;;;;16.00;99.90;;;;;;5067028;28;20043;-74
2023/06/22 04:53:12;;;;;;;46.78;42.80;;;16.00;99.90;;;;;;5065794;28;19951;-75
2023/06/22 04:55:41;;;;;;;45.08;41.20;;;16.10;99.90;;;;;;5066384;28;20032;-75
2023/06/22 04:58:07;;;;;;;50.05;45.63;;;16.10;99.90;;;;;;5081019;28;20445;-75
2023/06/22 05:00:36;;;;;;;44.05;40.22;;;16.10;99.90;;;;;;5096260;28;20044;-76
2023/06/22 05:03:03;;;;;;;47.13;43.13;;;16.10;99.90;;;;;;5063437;28;20040;-75
2023/06/22 05:05:29;;;;;;;47.50;43.42;;;16.20;99.90;;;;;;5065573;28;20047;-75
2023/06/22 05:07:59;;;;;;;54.30;49.53;;;16.20;99.90;;;;;;5083436;28;20040;-75
2023/06/22 05:10:25;;;;;;;50.88;46.33;;;16.30;99.90;;;;;;5077386;28;20044;-75
2023/06/22 05:12:51;;;;;;;54.30;49.20;;;16.30;99.90;;;;;;5083017;28;20043;-75
2023/06/22 05:15:19;;;;;;;54.25;49.35;;;16.40;99.90;;;;;;5067731;28;20043;-75
2023/06/22 05:17:45;;;;;;;54.63;49.47;;;16.50;99.90;;;;;;5043510;28;20086;-75
2023/06/22 05:20:12;;;;;;;55.55;50.53;;;16.50;99.90;;;;;;5092445;28;20120;-75
2023/06/22 05:22:43;;;;;;;;;;;16.50;99.90;;;;;;5080912;28;20032;-75
2023/06/22 05:25:10;;;;;;;52.85;47.95;;;16.60;99.90;;;;;;5080594;28;19920;-75
2023/06/22 05:27:40;;;;;;;57.53;52.20;;;16.60;99.90;;;;;;5081369;28;20043;-75
2023/06/22 05:30:07;;;;;;;57.85;52.28;;;16.70;99.90;;;;;;5096269;28;20134;-75
2023/06/22 05:32:33;;;;;;;53.50;48.42;;;16.80;99.90;;;;;;5061967;28;20552;-75
2023/06/22 05:34:59;;;;;;;52.10;47.08;;;16.90;99.90;;;;;;5093218;28;20036;-75
2023/06/22 05:37:26;;;;;;;53.65;48.28;;;17.00;99.90;;;;;;5079609;28;20470;-75
2023/06/22 05:39:52;;;;;;;52.55;47.55;;;17.10;99.90;;;;;;5076055;28;20501;-75
2023/06/22 05:42:18;;;;;;;53.28;48.17;;;17.20;99.90;;;;;;5075063;28;20060;-75
2023/06/22 05:44:43;;;;;;;51.75;46.67;;;17.30;99.90;;;;;;5068340;28;20044;-72
2023/06/22 05:47:09;;;;;;;47.85;43.35;;;17.40;99.90;;;;;;5084080;28;20413;-72
2023/06/22 05:49:35;;;;;;;53.95;48.88;;;17.50;99.90;;;;;;5048421;28;20036;-72
2023/06/22 05:52:01;;;;;;;51.30;46.40;;;17.50;99.90;;;;;;5080053;28;20105;-72
2023/06/22 05:54:30;;;;;;;53.42;48.60;;;17.60;99.90;;;;;;5077034;28;20088;-72
2023/06/22 05:56:56;;;;;;;51.67;46.70;;;17.70;99.90;;;;;;5083285;28;20047;-72
2023/06/22 05:59:22;;;;;;;50.65;46.05;;;17.80;99.90;;;;;;5085583;28;20362;-72
2023/06/22 06:01:51;;;;;;;50.10;45.13;;;17.90;99.90;;;;;;5084012;28;20553;-72
2023/06/22 06:04:19;;;;;;;50.65;45.67;;;18.10;99.90;;;;;;5102031;28;20051;-72
2023/06/22 06:06:46;;;;;;;47.67;43.20;;;18.10;99.90;;;;;;5102693;28;20466;-72
2023/06/22 06:09:14;;;;;;;44.80;40.65;;;18.20;99.90;;;;;;5092199;28;20101;-73
2023/06/22 06:11:40;;;;;;;45.55;41.33;;;18.30;99.90;;;;;;5084658;28;20039;-73
2023/06/22 06:14:06;;;;;;;46.78;42.20;;;18.30;99.90;;;;;;5100928;28;20048;-73
2023/06/22 06:16:32;;;;;;;44.05;40.05;;;18.40;99.90;;;;;;5067751;28;20102;-73
2023/06/22 06:18:58;;;;;;;45.75;41.50;;;18.50;99.90;;;;;;5083899;28;20089;-73
2023/06/22 06:21:24;;;;;;;44.42;40.33;;;18.50;99.90;;;;;;5068839;28;20055;-73
2023/06/22 06:23:50;;;;;;;45.40;41.03;;;18.60;99.90;;;;;;5083956;28;20509;-73
2023/06/22 06:26:16;;;;;;;41.97;37.90;;;18.70;99.90;;;;;;5083444;28;20086;-73
2023/06/22 06:28:43;;;;;;;39.50;35.92;;;18.80;99.90;;;;;;5060503;28;20394;-72
2023/06/22 06:31:09;;;;;;;39.08;35.38;;;18.90;99.90;;;;;;5085462;28;20052;-72
2023/06/22 06:33:36;;;;;;;35.03;31.77;;;19.00;99.90;;;;;;5081951;28;20485;-73
2023/06/22 06:36:03;;;;;;;33.65;30.38;;;19.00;99.90;;;;;;5084964;28;20425;-73
2023/06/22 06:38:32;;;;;;;33.30;30.20;;;19.00;99.90;;;;;;5078902;28;20572;-73
2023/06/22 06:40:59;;;;;;;28.45;25.75;;;19.10;99.90;;;;;;5098948;28;20063;-73
2023/06/22 06:43:25;;;;;;;28.50;25.77;;;19.20;99.90;;;;;;5080519;28;20058;-73
2023/06/22 06:45:51;;;;;;;28.55;26.02;;;19.30;99.90;;;;;;5083737;28;20512;-73
2023/06/22 06:48:17;;;;;;;28.13;25.60;;;19.40;99.90;;;;;;5099591;28;20050;-73
2023/06/22 06:50:43;;;;;;;26.85;24.35;;;19.50;99.90;;;;;;5051456;28;20110;-74
2023/06/22 06:53:10;;;;;;;24.60;22.30;;;19.50;99.90;;;;;;5103349;28;20056;-73
2023/06/22 06:55:35;;;;;;;22.63;20.45;;;19.60;99.90;;;;;;5097045;28;20054;-74
2023/06/22 06:58:04;;;;;;;19.40;17.77;;;19.80;99.90;;;;;;5101869;28;20280;-76
2023/06/22 07:00:29;;;;;;;20.33;18.52;;;19.80;99.90;;;;;;5084397;28;20376;-76
2023/06/22 07:02:55;;;;;;;18.90;17.08;;;19.90;99.90;;;;;;5085430;28;20038;-76
2023/06/22 07:05:21;;;;;;;19.30;17.60;;;20.00;99.90;;;;;;5082715;28;20052;-76
2023/06/22 07:07:47;;;;;;;17.20;15.60;;;20.10;99.90;;;;;;5085321;28;20036;-76
2023/06/22 07:10:15;;;;;;;17.90;16.20;;;20.20;99.90;;;;;;5100811;28;20166;-76
2023/06/22 07:12:44;;;;;;;16.88;15.20;;;20.20;99.90;;;;;;5082251;28;20042;-76
2023/06/22 07:15:14;;;;;;;16.33;14.90;;;20.40;99.90;;;;;;5069059;28;20044;-76
2023/06/22 07:17:42;;;;;;;17.00;15.10;;;20.40;99.90;;;;;;5080462;28;20047;-76
2023/06/22 07:20:12;;;;;;;16.38;14.70;;;20.40;99.90;;;;;;5086296;28;20123;-76
2023/06/22 07:22:44;;;;;;;15.90;14.35;;;20.50;99.90;;;;;;5081615;28;20069;-76
2023/06/22 07:25:10;;;;;;;15.48;13.98;;;20.50;99.90;;;;;;5100010;28;20050;-76
2023/06/22 07:27:43;;;;;;;15.05;13.75;;;20.60;99.90;;;;;;5068499;28;20028;-76
2023/06/22 07:30:10;;;;;;;15.48;14.07;;;20.60;99.90;;;;;;5078011;28;20181;-76
2023/06/22 07:32:36;;;;;;;15.32;13.52;;;20.60;99.90;;;;;;5104518;28;20032;-76
2023/06/22 07:35:02;;;;;;;15.23;13.82;;;20.70;99.90;;;;;;5098937;28;20111;-76
2023/06/22 07:37:28;;;;;;;15.50;13.88;;;20.70;99.90;;;;;;5094902;28;20048;-77
2023/06/22 07:39:58;;;;;;;15.05;13.55;;;20.80;99.90;;;;;;5065646;28;20056;-77
2023/06/22 07:42:25;;;;;;;11.77;10.68;;;20.90;99.90;;;;;;5102648;28;20051;-77
2023/06/22 07:44:51;;;;;;;11.95;10.75;;;21.10;99.90;;;;;;5068310;28;20116;-74
2023/06/22 07:47:24;;;;;;;12.13;10.43;;;21.30;99.90;;;;;;5082763;28;20553;-74
2023/06/22 07:49:51;;;;;;;12.65;11.48;;;21.40;99.90;;;;;;5080135;28;20532;-74
2023/06/22 07:52:17;;;;;;;13.35;10.80;;;21.50;99.90;;;;;;5082666;28;20059;-74
2023/06/22 07:54:43;;;;;;;10.05;9.00;;;21.50;99.90;;;;;;5082293;28;20103;-74
2023/06/22 07:57:08;;;;;;;11.05;9.95;;;21.60;99.90;;;;;;5066521;28;20047;-74
2023/06/22 07:59:34;;;;;;;9.43;8.40;;;21.70;99.90;;;;;;5083589;28;20047;-73
2023/06/22 08:02:03;;;;;;;11.38;10.27;;;21.80;99.90;;;;;;5082605;28;20123;-76
2023/06/22 08:04:28;;;;;;;9.55;8.38;;;22.00;99.90;;;;;;5096389;28;20055;-74
2023/06/22 08:06:54;;;;;;;9.50;7.30;;;22.20;99.90;;;;;;5061466;28;20040;-73
2023/06/22 08:09:20;;;;;;;9.75;8.18;;;22.20;99.90;;;;;;5094815;28;20039;-74
2023/06/22 08:11:47;;;;;;;9.13;7.90;;;22.40;99.90;;;;;;5085896;28;20063;-74
2023/06/22 08:14:13;;;;;;;10.25;9.18;;;22.40;99.90;;;;;;5048874;28;20055;-74
2023/06/22 08:16:39;;;;;;;10.35;9.10;;;22.50;99.90;;;;;;5048955;28;20040;-73
2023/06/22 08:19:04;;;;;;;10.45;9.35;;;22.60;99.90;;;;;;5077113;28;20035;-74
2023/06/22 08:21:30;;;;;;;11.27;10.18;;;22.60;99.90;;;;;;5097727;28;20047;-73
2023/06/22 08:23:56;;;;;;;12.32;11.07;;;22.60;99.90;;;;;;5097984;28;20122;-73
2023/06/22 08:26:21;;;;;;;10.77;9.68;;;22.60;99.90;;;;;;5050957;28;20047;-73
2023/06/22 08:28:47;;;;;;;9.38;8.40;;;22.70;99.90;;;;;;5065679;28;20042;-73
2023/06/22 08:31:13;;;;;;;10.13;9.13;;;22.80;99.90;;;;;;5080795;28;20656;-72
2023/06/22 08:33:40;;;;;;;10.43;9.32;;;22.90;99.90;;;;;;5067489;28;20040;-73
2023/06/22 08:36:08;;;;;;;10.30;9.00;;;22.90;99.90;;;;;;5059247;28;20047;-72
2023/06/22 08:38:33;;;;;;;10.18;8.90;;;23.00;99.90;;;;;;5064555;28;20043;-73
2023/06/22 08:41:00;;;;;;;14.15;11.00;;;23.10;99.90;;;;;;5067222;28;20116;-73
2023/06/22 08:43:26;;;;;;;12.35;10.10;;;23.20;99.90;;;;;;5057211;28;20583;-73
2023/06/22 08:45:52;;;;;;;12.85;10.27;;;23.20;99.90;;;;;;5079616;28;20044;-73
2023/06/22 08:48:18;;;;;;;10.18;9.10;;;23.30;99.90;;;;;;5081875;28;20108;-73
2023/06/22 08:50:44;;;;;;;12.93;11.35;;;23.30;99.90;;;;;;5097867;28;20044;-73
2023/06/22 08:53:09;;;;;;;10.23;9.23;;;23.40;99.90;;;;;;5081346;28;20036;-73
2023/06/22 08:55:35;;;;;;;12.85;10.85;;;23.50;99.90;;;;;;5101544;28;20093;-73
2023/06/22 08:58:01;;;;;;;12.60;9.98;;;23.60;99.90;;;;;;5076147;28;20036;-72
2023/06/22 09:00:29;;;;;;;12.23;9.77;;;23.60;99.90;;;;;;5083883;28;20044;-72
2023/06/22 09:02:58;;;;;;;10.23;8.93;;;23.70;99.90;;;;;;5079054;28;20101;-72
2023/06/22 09:05:25;;;;;;;13.60;10.57;;;23.80;99.90;;;;;;5082038;28;20056;-72
2023/06/22 09:07:51;;;;;;;9.20;8.23;;;24.00;99.90;;;;;;5080354;28;20526;-72
2023/06/22 09:10:18;;;;;;;11.10;9.48;;;24.00;99.90;;;;;;5100882;28;20059;-73
2023/06/22 09:12:44;;;;;;;10.95;9.85;;;24.10;99.90;;;;;;5094518;28;20040;-72
2023/06/22 09:15:10;;;;;;;12.25;9.52;;;24.10;99.90;;;;;;5080949;28;20051;-72
2023/06/22 09:17:36;;;;;;;11.38;10.18;;;24.10;99.90;;;;;;5077396;28;20152;-72
2023/06/22 09:20:05;;;;;;;11.00;9.88;;;24.20;99.90;;;;;;5063633;28;20524;-73
2023/06/22 09:22:32;;;;;;;12.50;10.05;;;24.20;99.90;;;;;;5094850;28;20553;-72
2023/06/22 09:24:59;;;;;;;11.82;10.65;;;24.30;99.90;;;;;;5069514;28;20032;-72
2023/06/22 09:27:25;;;;;;;11.60;9.88;;;24.30;99.90;;;;;;5067810;28;20089;-72
2023/06/22 09:29:51;;;;;;;11.23;10.02;;;24.40;99.90;;;;;;5062553;28;20081;-72
2023/06/22 09:32:17;;;;;;;11.18;9.98;;;24.40;99.90;;;;;;5086995;28;20035;-72
2023/06/22 09:34:43;;;;;;;11.55;10.13;;;24.40;99.90;;;;;;5102736;28;20044;-72
2023/06/22 09:37:08;;;;;;;12.30;11.00;;;24.50;99.90;;;;;;5084069;28;20080;-72
2023/06/22 09:39:34;;;;;;;13.15;10.70;;;24.50;99.90;;;;;;5091804;28;20051;-72
2023/06/22 09:42:00;;;;;;;11.65;10.43;;;24.60;99.80;;;;;;5086866;28;20074;-73
2023/06/22 09:44:26;;;;;;;11.98;9.43;;;24.50;99.80;;;;;;5065745;28;20085;-72
2023/06/22 09:46:52;;;;;;;10.80;9.70;;;24.50;99.90;;;;;;5087141;28;20051;-73
2023/06/22 09:49:18;;;;;;;12.02;10.25;;;24.70;99.90;;;;;;5082302;28;20039;-72
2023/06/22 09:51:44;;;;;;;12.07;10.88;;;24.80;99.80;;;;;;5088337;28;20495;-73
2023/06/22 09:54:10;;;;;;;12.45;11.20;;;24.80;99.60;;;;;;5094685;28;20548;-72
2023/06/22 09:56:37;;;;;;;12.10;10.82;;;24.90;99.10;;;;;;5066608;28;20126;-72
2023/06/22 09:59:03;;;;;;;9.95;8.75;;;24.90;98.70;;;;;;5095843;28;20058;-73
2023/06/22 10:01:29;;;;;;;11.13;9.93;;;25.00;98.50;;;;;;5087032;28;20486;-72
2023/06/22 10:03:56;;;;;;;10.27;8.57;;;25.10;97.00;;;;;;5084501;28;20046;-72
2023/06/22 10:06:22;;;;;;;10.65;9.55;;;25.10;97.60;;;;;;5081738;28;20521;-72
2023/06/22 10:08:48;;;;;;;10.40;9.30;;;25.20;97.30;;;;;;5083527;28;20048;-73
2023/06/22 10:11:14;;;;;;;10.20;9.20;;;25.20;97.10;;;;;;5086710;28;20134;-73
2023/06/22 10:13:40;;;;;;;12.27;9.32;;;25.20;97.60;;;;;;5077982;28;20181;-73
2023/06/22 10:16:06;;;;;;;12.20;10.07;;;25.30;96.30;;;;;;5061846;28;20047;-73
2023/06/22 10:18:32;;;;;;;10.93;9.32;;;25.40;96.40;;;;;;5102450;28;20047;-73
2023/06/22 10:20:58;;;;;;;11.57;9.55;;;25.40;95.80;;;;;;5085167;28;20040;-72
2023/06/22 10:23:24;;;;;;;10.43;9.30;;;25.50;95.80;;;;;;5066941;28;20051;-72
2023/06/22 10:25:50;;;;;;;9.80;8.90;;;25.50;95.90;;;;;;5100801;28;20534;-73
2023/06/22 10:28:16;;;;;;;11.93;10.52;;;25.60;96.20;;;;;;5097712;28;20144;-73
2023/06/22 10:30:44;;;;;;;10.30;9.30;;;25.60;96.10;;;;;;5069296;28;20508;-72
2023/06/22 10:33:14;;;;;;;11.13;8.30;;;25.60;95.50;;;;;;5085465;28;20039;-73
2023/06/22 10:35:40;;;;;;;11.30;10.15;;;25.60;95.50;;;;;;5082363;28;20047;-72
2023/06/22 10:38:06;;;;;;;12.52;9.18;;;25.80;94.90;;;;;;5066177;28;20119;-72
2023/06/22 10:40:32;;;;;;;15.02;9.38;;;25.80;95.40;;;;;;5083542;28;20048;-72
2023/06/22 10:42:58;;;;;;;9.02;8.10;;;25.90;94.70;;;;;;5078096;28;20138;-72
2023/06/22 10:45:24;;;;;;;9.32;8.15;;;25.80;94.30;;;;;;5087138;28;20138;-72
2023/06/22 10:47:49;;;;;;;11.38;9.07;;;25.70;94.10;;;;;;5069474;28;20040;-72
2023/06/22 10:50:15;;;;;;;9.05;8.15;;;25.50;93.50;;;;;;5066069;28;20051;-72
2023/06/22 10:52:41;;;;;;;11.43;10.23;;;25.30;94.90;;;;;;5086436;28;20055;-72
2023/06/22 10:55:08;;;;;;;10.48;9.43;;;25.40;95.60;;;;;;5096264;28;20493;-72
2023/06/22 10:57:34;;;;;;;9.25;7.97;;;25.50;94.10;;;;;;5099183;28;20082;-72
2023/06/22 11:00:00;;;;;;;13.73;9.57;;;25.60;93.70;;;;;;5067361;28;20126;-72
2023/06/22 11:02:28;;;;;;;8.27;7.38;;;25.60;93.70;;;;;;5066845;28;20052;-76
2023/06/22 11:04:56;;;;;;;12.82;8.98;;;25.70;94.60;;;;;;5081174;28;20047;-76
2023/06/22 11:07:22;;;;;;;10.45;8.70;;;25.80;93.70;;;;;;5078362;28;20057;-78
2023/06/22 11:09:48;;;;;;;9.63;8.63;;;25.80;92.80;;;;;;5086928;28;20043;-77
2023/06/22 11:12:13;;;;;;;10.18;9.05;;;25.60;93.90;;;;;;5080194;28;20411;-77
2023/06/22 11:14:39;;;;;;;10.45;9.38;;;25.60;94.30;;;;;;5097961;28;20043;-75
2023/06/22 11:17:05;;;;;;;10.20;9.15;;;25.50;94.20;;;;;;5081417;28;20457;-72
2023/06/22 11:19:31;;;;;;;9.38;8.48;;;25.30;93.70;;;;;;5067145;28;20044;-72
2023/06/22 11:21:57;;;;;;;7.80;6.65;;;25.20;93.80;;;;;;5081877;28;20039;-72
2023/06/22 11:24:25;;;;;;;7.35;6.00;;;25.20;93.10;;;;;;5082537;28;20306;-73
2023/06/22 11:26:51;;;;;;;9.35;7.05;;;25.20;92.60;;;;;;5066264;28;20048;-72
2023/06/22 11:29:17;;;;;;;9.25;7.45;;;25.20;94.40;;;;;;5066454;28;20050;-73
2023/06/22 11:31:43;;;;;;;6.47;5.68;;;25.30;95.40;;;;;;5078995;28;20130;-73
2023/06/22 11:34:09;;;;;;;8.45;6.80;;;25.40;94.90;;;;;;5066821;28;20047;-72
2023/06/22 11:36:35;;;;;;;8.07;6.85;;;25.30;95.00;;;;;;5065812;28;20039;-72
2023/06/22 11:39:01;;;;;;;9.30;7.72;;;25.30;93.00;;;;;;5075940;27;20034;-73
2023/06/22 11:41:27;;;;;;;9.55;7.25;;;25.30;92.70;;;;;;5087019;27;20587;-76
2023/06/22 11:43:52;;;;;;;8.50;6.20;;;25.30;92.40;;;;;;5088589;27;20072;-76
2023/06/22 11:46:21;;;;;;;8.00;6.35;;;25.20;92.00;;;;;;5087819;27;20104;-76
2023/06/22 11:48:47;;;;;;;9.15;7.32;;;25.20;91.60;;;;;;5087611;27;20042;-75
2023/06/22 11:51:13;;;;;;;7.65;6.63;;;25.20;91.60;;;;;;5086378;27;20031;-72
2023/06/22 11:53:38;;;;;;;8.45;6.85;;;25.10;92.50;;;;;;5069507;27;20053;-72
2023/06/22 11:56:04;;;;;;;7.45;5.88;;;25.10;92.50;;;;;;5101740;27;20522;-72
2023/06/22 11:58:30;;;;;;;9.52;6.75;;;25.20;93.30;;;;;;5102100;27;20118;-72
2023/06/22 12:00:56;;;;;;;7.20;5.97;;;25.20;92.20;;;;;;5064445;27;20067;-72
2023/06/22 12:03:21;;;;;;;6.63;5.88;;;25.20;92.80;;;;;;5083508;27;20493;-72
2023/06/22 12:05:48;;;;;;;9.00;5.68;;;25.20;91.70;;;;;;5098712;27;20466;-72
2023/06/22 12:08:14;;;;;;;7.47;6.47;;;25.30;91.90;;;;;;5086181;27;20516;-71
2023/06/22 12:10:40;;;;;;;8.48;7.40;;;25.30;91.20;;;;;;5066192;27;20481;-72
2023/06/22 12:13:05;;;;;;;7.88;7.07;;;25.30;91.30;;;;;;5100518;28;20493;-71
2023/06/22 12:15:31;;;;;;;7.65;6.85;;;25.30;92.20;;;;;;5105027;27;20198;-72
2023/06/22 12:17:57;;;;;;;7.13;5.45;;;25.30;91.60;;;;;;5085832;27;20039;-72
2023/06/22 12:20:23;;;;;;;7.15;5.88;;;25.30;91.50;;;;;;5085073;28;20058;-73
2023/06/22 12:22:51;;;;;;;8.38;6.15;;;25.40;90.50;;;;;;5067213;27;20054;-72
2023/06/22 12:25:17;;;;;;;6.68;5.60;;;25.50;91.00;;;;;;5064789;27;20100;-73
2023/06/22 12:27:43;;;;;;;8.15;7.35;;;25.60;91.30;;;;;;5078665;27;20039;-73
2023/06/22 12:30:09;;;;;;;8.52;7.60;;;25.60;91.00;;;;;;5099816;27;20081;-72
2023/06/22 12:32:34;;;;;;;9.15;7.30;;;25.60;91.20;;;;;;5100416;27;20497;-73